createdAt,value
2022-10-05T00:00:24.688Z,2.65
2022-10-05T00:03:33.478Z,2.80
2022-10-05T00:06:36.096Z,2.92
2022-10-05T00:09:38.625Z,2.72
2022-10-05T00:12:41.423Z,2.45
2022-10-05T00:15:44.460Z,2.90
2022-10-05T00:18:49.692Z,2.47
2022-10-05T00:21:52.262Z,2.72
2022-10-05T00:24:57.187Z,3.05
2022-10-05T00:28:01.346Z,2.80
2022-10-05T00:31:04.068Z,2.40
2022-10-05T00:34:07.960Z,2.63
2022-10-05T00:37:10.685Z,2.67
2022-10-05T00:40:18.358Z,3.00
2022-10-05T00:43:30.349Z,2.75
2022-10-05T00:46:36.867Z,2.75
2022-10-05T00:49:54.930Z,2.95
2022-10-05T00:53:06.047Z,2.38
2022-10-05T00:56:12.994Z,2.75
2022-10-05T00:59:20.143Z,2.67
2022-10-05T01:02:26.389Z,2.55
2022-10-05T01:05:40.039Z,2.45
2022-10-05T01:08:49.232Z,2.97
2022-10-05T01:11:54.734Z,2.65
2022-10-05T01:15:02.559Z,3.13
2022-10-05T01:18:08.282Z,2.83
2022-10-05T01:21:15.977Z,2.45
2022-10-05T01:24:36.434Z,2.50
2022-10-05T01:27:42.564Z,2.92
2022-10-05T01:30:50.397Z,3.40
2022-10-05T01:33:56.777Z,2.17
2022-10-05T01:37:02.656Z,2.90
2022-10-05T01:40:08.822Z,2.65
2022-10-05T01:43:15.989Z,2.95
2022-10-05T01:46:24.579Z,2.90
2022-10-05T01:49:36.711Z,2.58
2022-10-05T01:52:44.306Z,2.85
2022-10-05T01:55:49.993Z,3.00
2022-10-05T01:58:56.359Z,2.90
2022-10-05T02:02:01.229Z,2.65
2022-10-05T02:05:05.519Z,3.42
2022-10-05T02:08:11.862Z,3.17
2022-10-05T02:11:15.513Z,2.92
2022-10-05T02:14:22.420Z,2.67
2022-10-05T02:17:28.351Z,2.25
2022-10-05T02:20:33.706Z,2.78
2022-10-05T02:23:37.761Z,2.50
2022-10-05T02:26:41.455Z,2.47
2022-10-05T02:29:47.053Z,2.60
2022-10-05T02:32:52.375Z,2.60
2022-10-05T02:35:55.004Z,2.50
2022-10-05T02:39:00.823Z,3.05
2022-10-05T02:42:08.444Z,2.67
2022-10-05T02:45:16.952Z,3.00
2022-10-05T02:48:26.958Z,2.60
2022-10-05T02:51:34.554Z,2.72
2022-10-05T02:54:43.656Z,2.53
2022-10-05T02:57:48.368Z,2.90
2022-10-05T03:00:59.313Z,2.33
2022-10-05T03:04:07.681Z,2.28
2022-10-05T03:07:14.416Z,3.30
2022-10-05T03:10:22.267Z,2.53
2022-10-05T03:13:27.500Z,3.88
2022-10-05T03:16:40.301Z,2.67
2022-10-05T03:20:03.980Z,2.42
2022-10-05T03:23:11.080Z,2.95
2022-10-05T03:26:25.725Z,2.20
2022-10-05T03:29:33.448Z,2.35
2022-10-05T03:32:41.200Z,2.80
2022-10-05T03:35:49.956Z,2.78
2022-10-05T03:38:57.245Z,2.75
2022-10-05T03:42:05.453Z,2.97
2022-10-05T03:45:10.276Z,2.60
2022-10-05T03:48:15.768Z,2.63
2022-10-05T03:51:20.973Z,2.35
2022-10-05T03:54:25.305Z,2.47
2022-10-05T03:57:29.284Z,2.88
2022-10-05T04:00:35.153Z,2.47
2022-10-05T04:03:48.415Z,2.90
2022-10-05T04:06:52.309Z,3.00
2022-10-05T04:09:56.201Z,2.90
2022-10-05T04:13:00.413Z,2.85
2022-10-05T04:16:05.191Z,2.60
2022-10-05T04:19:13.963Z,2.88
2022-10-05T04:22:19.931Z,2.75
2022-10-05T04:25:26.130Z,2.90
2022-10-05T04:28:32.500Z,2.63
2022-10-05T04:31:44.026Z,2.50
2022-10-05T04:34:54.461Z,3.35
2022-10-05T04:38:03.891Z,3.33
2022-10-05T04:41:12.543Z,3.13
2022-10-05T04:44:32.339Z,3.00
2022-10-05T04:47:50.228Z,3.20
2022-10-05T04:51:01.921Z,3.10
2022-10-05T04:54:08.011Z,3.13
2022-10-05T04:57:12.943Z,3.67
2022-10-05T05:00:22.397Z,2.97
2022-10-05T05:03:33.340Z,3.42
2022-10-05T05:06:40.401Z,2.92
2022-10-05T05:09:53.133Z,3.33
2022-10-05T05:13:00.180Z,3.10
2022-10-05T05:16:06.211Z,2.70
2022-10-05T05:19:31.186Z,3.25
2022-10-05T05:22:42.659Z,2.53
2022-10-05T05:25:47.684Z,2.90
2022-10-05T05:28:53.116Z,3.20
2022-10-05T05:31:58.788Z,3.30
2022-10-05T05:35:09.927Z,3.58
2022-10-05T05:38:20.276Z,3.03
2022-10-05T05:41:28.106Z,2.80
2022-10-05T05:44:38.432Z,3.33
2022-10-05T05:47:45.180Z,3.40
2022-10-05T05:50:50.917Z,3.63
2022-10-05T05:53:56.754Z,4.25
2022-10-05T05:57:04.236Z,2.97
2022-10-05T06:00:10.930Z,3.05
2022-10-05T06:03:22.307Z,3.10
2022-10-05T06:06:28.266Z,3.28
2022-10-05T06:09:36.342Z,3.65
2022-10-05T06:12:48.727Z,3.33
2022-10-05T06:15:54.292Z,2.80
2022-10-05T06:19:00.278Z,3.45
2022-10-05T06:22:05.353Z,3.17
2022-10-05T06:25:17.174Z,2.88
2022-10-05T06:28:21.725Z,3.55
2022-10-05T06:31:39.039Z,3.15
2022-10-05T06:34:49.417Z,3.63
2022-10-05T06:38:08.837Z,3.88
2022-10-05T06:41:17.243Z,3.10
2022-10-05T06:44:23.488Z,2.70
2022-10-05T06:47:52.733Z,3.17
2022-10-05T06:51:23.214Z,3.30
2022-10-05T06:54:57.274Z,3.45
2022-10-05T06:58:17.169Z,2.78
2022-10-05T07:01:26.080Z,2.47
2022-10-05T07:04:37.211Z,3.03
2022-10-05T07:07:44.052Z,3.40
2022-10-05T07:10:55.561Z,2.92
2022-10-05T07:14:10.442Z,3.00
2022-10-05T07:17:25.908Z,3.22
2022-10-05T07:20:31.388Z,3.22
2022-10-05T07:23:42.897Z,3.15
2022-10-05T07:26:47.327Z,3.08
2022-10-05T07:29:54.108Z,2.53
2022-10-05T07:33:00.054Z,2.70
2022-10-05T07:36:23.751Z,3.00
2022-10-05T07:39:55.301Z,2.97
2022-10-05T07:43:03.085Z,2.60
2022-10-05T07:46:14.091Z,3.20
2022-10-05T07:49:22.697Z,3.13
2022-10-05T07:52:34.357Z,3.08
2022-10-05T07:55:38.258Z,3.00
2022-10-05T07:58:44.259Z,2.83
2022-10-05T08:01:52.960Z,3.13
2022-10-05T08:04:58.542Z,2.95
2022-10-05T08:08:05.685Z,2.80
2022-10-05T08:11:14.619Z,3.58
2022-10-05T08:14:21.045Z,2.97
2022-10-05T08:17:33.022Z,2.83
2022-10-05T08:20:40.525Z,2.83
2022-10-05T08:23:47.221Z,2.97
2022-10-05T08:26:52.865Z,2.92
2022-10-05T08:29:58.080Z,2.55
2022-10-05T08:33:05.988Z,2.45
2022-10-05T08:36:12.103Z,2.97
2022-10-05T08:39:16.728Z,3.05
2022-10-05T08:42:37.472Z,2.60
2022-10-05T08:45:58.235Z,3.25
2022-10-05T08:49:16.883Z,3.17
2022-10-05T08:52:25.463Z,3.08
2022-10-05T08:55:34.882Z,3.10
2022-10-05T08:58:54.348Z,2.80
2022-10-05T09:02:05.666Z,3.50
2022-10-05T09:05:26.447Z,3.05
2022-10-05T09:08:42.133Z,2.75
2022-10-05T09:11:47.122Z,3.08
2022-10-05T09:15:20.953Z,2.92
2022-10-05T09:18:33.789Z,2.92
2022-10-05T09:21:41.240Z,2.85
2022-10-05T09:24:52.942Z,2.90
2022-10-05T09:28:00.141Z,3.15
2022-10-05T09:31:19.414Z,3.03
2022-10-05T09:34:31.517Z,2.92
2022-10-05T09:37:44.233Z,3.13
2022-10-05T09:41:05.907Z,2.90
2022-10-05T09:44:20.567Z,2.88
2022-10-05T09:47:34.602Z,2.58
2022-10-05T09:50:52.266Z,2.38
2022-10-05T09:54:03.986Z,2.85
2022-10-05T09:57:25.414Z,2.53
2022-10-05T10:00:32.523Z,2.30
2022-10-05T10:03:56.667Z,2.30
2022-10-05T10:07:08.735Z,2.38
2022-10-05T10:10:32.593Z,2.30
2022-10-05T10:13:51.962Z,2.45
2022-10-05T10:17:01.426Z,2.42
2022-10-05T10:20:14.565Z,2.08
2022-10-05T10:23:24.187Z,3.00
2022-10-05T10:26:45.808Z,2.10
2022-10-05T10:30:03.695Z,2.40
2022-10-05T10:33:21.361Z,2.83
2022-10-05T10:36:33.025Z,2.75
2022-10-05T10:39:41.437Z,2.30
2022-10-05T10:42:51.776Z,2.33
2022-10-05T10:45:58.313Z,2.33
2022-10-05T10:49:10.408Z,2.78
2022-10-05T10:52:19.869Z,2.33
2022-10-05T10:55:28.647Z,2.45
2022-10-05T10:58:43.801Z,2.33
2022-10-05T11:01:52.118Z,2.20
2022-10-05T11:05:12.941Z,2.72
2022-10-05T11:08:35.645Z,2.42
2022-10-05T11:11:53.208Z,2.15
2022-10-05T11:15:06.534Z,2.30
2022-10-05T11:18:17.486Z,2.58
2022-10-05T11:21:30.345Z,2.20
2022-10-05T11:24:55.264Z,2.65
2022-10-05T11:28:04.344Z,2.33
2022-10-05T11:31:26.886Z,2.22
2022-10-05T11:34:39.257Z,2.88
2022-10-05T11:37:55.906Z,2.45
2022-10-05T11:41:08.441Z,2.20
2022-10-05T11:44:30.378Z,2.13
2022-10-05T11:47:37.774Z,2.42
2022-10-05T11:50:43.281Z,2.38
2022-10-05T11:53:48.924Z,2.38
2022-10-05T11:56:56.557Z,2.20
2022-10-05T12:00:04.078Z,2.00
2022-10-05T12:03:27.142Z,2.25
2022-10-05T12:06:39.291Z,2.10
2022-10-05T12:10:11.607Z,2.03
2022-10-05T12:13:20.693Z,1.90
2022-10-05T12:16:26.231Z,2.05
2022-10-05T12:19:33.765Z,2.38
2022-10-05T12:22:38.787Z,1.92
2022-10-05T12:25:44.936Z,2.33
2022-10-05T12:28:52.364Z,1.83
2022-10-05T12:31:58.401Z,2.15
2022-10-05T12:35:03.682Z,2.20
2022-10-05T12:38:10.479Z,1.90
2022-10-05T12:41:19.823Z,2.22
2022-10-05T12:44:32.820Z,2.67
2022-10-05T12:47:39.894Z,2.10
2022-10-05T12:50:43.071Z,3.65
2022-10-05T12:53:50.202Z,2.38
2022-10-05T12:56:55.725Z,2.00
2022-10-05T13:00:02.379Z,2.30
2022-10-05T13:03:09.824Z,2.47
2022-10-05T13:06:17.684Z,2.20
2022-10-05T13:09:25.139Z,1.77
2022-10-05T13:12:35.289Z,1.95
2022-10-05T13:15:47.025Z,1.95
2022-10-05T13:18:58.672Z,2.05
2022-10-05T13:22:05.402Z,2.05
2022-10-05T13:25:27.077Z,1.70
2022-10-05T13:28:32.493Z,1.80
2022-10-05T13:31:41.168Z,2.25
2022-10-05T13:34:46.325Z,1.88
2022-10-05T13:37:53.348Z,1.95
2022-10-05T13:41:03.366Z,1.65
2022-10-05T13:44:19.362Z,1.70
2022-10-05T13:47:26.731Z,1.63
2022-10-05T13:50:33.472Z,1.58
2022-10-05T13:53:40.911Z,1.42
2022-10-05T13:56:45.757Z,1.88
2022-10-05T13:59:53.344Z,1.75
2022-10-05T14:02:57.918Z,1.65
2022-10-05T14:06:01.632Z,1.52
2022-10-05T14:09:04.287Z,1.80
2022-10-05T14:12:12.868Z,1.42
2022-10-05T14:15:21.052Z,2.05
2022-10-05T14:18:26.801Z,1.50
2022-10-05T14:21:30.420Z,1.63
2022-10-05T14:24:49.187Z,1.38
2022-10-05T14:28:01.028Z,1.58
2022-10-05T14:31:13.983Z,1.00
2022-10-05T14:34:33.352Z,1.30
2022-10-05T14:37:44.606Z,1.70
2022-10-05T14:41:03.122Z,1.48
2022-10-05T14:44:08.020Z,1.50
2022-10-05T14:47:18.107Z,1.23
2022-10-05T14:50:26.446Z,1.77
2022-10-05T14:53:38.631Z,1.60
2022-10-05T14:56:49.740Z,2.03
2022-10-05T15:00:03.868Z,1.73
2022-10-05T15:03:16.246Z,1.40
2022-10-05T15:06:28.532Z,1.50
2022-10-05T15:09:42.108Z,1.67
2022-10-05T15:12:51.330Z,1.92
2022-10-05T15:16:06.955Z,1.50
2022-10-05T15:19:15.980Z,1.23
2022-10-05T15:22:24.914Z,1.60
2022-10-05T15:25:31.363Z,1.35
2022-10-05T15:28:37.689Z,1.92
2022-10-05T15:31:43.944Z,1.30
2022-10-05T15:34:52.880Z,1.88
2022-10-05T15:37:59.622Z,1.55
2022-10-05T15:41:07.767Z,1.60
2022-10-05T15:44:16.659Z,1.52
2022-10-05T15:47:23.172Z,1.15
2022-10-05T15:50:27.745Z,1.67
2022-10-05T15:53:38.268Z,1.50
2022-10-05T15:56:42.128Z,1.42
2022-10-05T15:59:51.855Z,1.48
2022-10-05T16:03:02.048Z,1.60
2022-10-05T16:06:26.040Z,1.52
2022-10-05T16:09:45.679Z,1.27
2022-10-05T16:12:54.677Z,1.48
2022-10-05T16:16:01.776Z,1.95
2022-10-05T16:19:08.048Z,1.65
2022-10-05T16:22:15.811Z,1.63
2022-10-05T16:25:23.695Z,1.77
2022-10-05T16:28:38.614Z,1.55
2022-10-05T16:31:51.341Z,1.48
2022-10-05T16:35:03.527Z,1.70
2022-10-05T16:38:14.011Z,1.60
2022-10-05T16:41:22.335Z,1.88
2022-10-05T16:44:32.275Z,1.92
2022-10-05T16:47:40.515Z,1.90
2022-10-05T16:50:49.823Z,1.70
2022-10-05T16:54:00.360Z,1.50
2022-10-05T16:57:12.278Z,1.77
2022-10-05T17:00:33.726Z,1.40
2022-10-05T17:03:46.594Z,1.90
2022-10-05T17:07:06.469Z,1.70
2022-10-05T17:10:31.532Z,1.45
2022-10-05T17:13:55.183Z,1.75
2022-10-05T17:17:36.091Z,1.95
2022-10-05T17:21:20.408Z,1.75
2022-10-05T17:25:26.536Z,1.60
2022-10-05T17:28:59.256Z,1.63
2022-10-05T17:32:23.721Z,1.92
2022-10-05T17:35:55.323Z,1.88
2022-10-05T17:39:19.521Z,1.75
2022-10-05T17:43:03.430Z,1.70
2022-10-05T17:46:21.297Z,1.50
2022-10-05T17:50:15.929Z,1.80
2022-10-05T17:53:47.234Z,2.10
2022-10-05T17:57:08.676Z,2.33
2022-10-05T18:00:33.764Z,1.58
2022-10-05T18:03:46.214Z,1.40
2022-10-05T18:07:11.731Z,1.30
2022-10-05T18:10:48.306Z,2.00
2022-10-05T18:14:09.833Z,2.05
2022-10-05T18:17:19.738Z,1.52
2022-10-05T18:20:54.143Z,1.35
2022-10-05T18:24:18.624Z,1.73
2022-10-05T18:27:36.574Z,1.33
2022-10-05T18:30:56.012Z,1.48
2022-10-05T18:34:08.619Z,1.75
2022-10-05T18:37:26.231Z,1.75
2022-10-05T18:40:38.076Z,1.50
2022-10-05T18:44:34.000Z,1.40
2022-10-05T18:47:53.066Z,1.88
2022-10-05T18:51:08.771Z,1.40
2022-10-05T18:54:25.784Z,1.45
2022-10-05T18:57:42.025Z,1.63
2022-10-05T19:01:00.936Z,2.10
2022-10-05T19:07:37.132Z,1.83
2022-10-05T19:10:45.237Z,1.73
2022-10-05T19:13:54.887Z,1.67
2022-10-05T19:17:08.914Z,1.55
2022-10-05T19:20:19.036Z,1.85
2022-10-05T19:23:32.480Z,1.50
2022-10-05T19:26:50.376Z,1.33
2022-10-05T19:30:00.913Z,1.33
2022-10-05T19:33:14.297Z,1.73
2022-10-05T19:36:31.423Z,1.65
2022-10-05T19:39:39.174Z,1.95
2022-10-05T19:43:10.199Z,1.73
2022-10-05T19:54:09.790Z,1.95
2022-10-05T19:57:18.013Z,1.73
2022-10-05T20:00:22.581Z,1.63
2022-10-05T20:03:27.764Z,1.50
2022-10-05T20:06:35.589Z,1.77
2022-10-05T20:09:54.328Z,2.17
2022-10-05T20:12:59.398Z,2.10
2022-10-05T20:16:40.296Z,1.80
2022-10-05T20:20:01.669Z,2.00
2022-10-05T20:23:21.999Z,1.60
2022-10-05T20:27:03.523Z,3.03
2022-10-05T20:30:11.985Z,1.40
2022-10-05T20:33:18.589Z,2.00
2022-10-05T20:36:22.085Z,1.45
2022-10-05T20:39:27.834Z,1.65
2022-10-05T20:42:34.834Z,1.80
2022-10-05T20:45:43.448Z,1.60
2022-10-05T20:48:54.499Z,1.52
2022-10-05T20:51:58.012Z,1.80
2022-10-05T20:55:02.178Z,1.70
2022-10-05T20:58:09.196Z,1.83
2022-10-05T21:01:22.952Z,1.88
2022-10-05T21:04:30.165Z,1.95
2022-10-05T21:07:37.550Z,1.83
2022-10-05T21:10:45.893Z,1.77
2022-10-05T21:13:55.547Z,1.88
2022-10-05T21:17:09.551Z,1.60
2022-10-05T21:20:20.992Z,1.60
2022-10-05T21:23:33.038Z,1.38
2022-10-05T21:26:46.018Z,1.80
2022-10-05T21:29:51.500Z,1.50
2022-10-05T21:32:55.830Z,1.80
2022-10-05T21:36:00.284Z,1.30
2022-10-05T21:39:08.495Z,1.50
2022-10-05T21:42:15.846Z,1.52
2022-10-05T21:45:25.675Z,1.23
2022-10-05T21:48:35.241Z,1.70
2022-10-05T21:51:44.890Z,1.92
2022-10-05T21:54:49.390Z,1.30
2022-10-05T21:58:05.371Z,1.50
2022-10-05T22:01:23.337Z,1.40
2022-10-05T22:04:32.827Z,1.60
2022-10-05T22:07:38.037Z,1.20
2022-10-05T22:10:44.575Z,1.20
2022-10-05T22:13:53.761Z,1.30
2022-10-05T22:17:01.273Z,1.60
2022-10-05T22:20:13.746Z,1.20
2022-10-05T22:23:18.140Z,1.00
2022-10-05T22:26:23.561Z,1.02
2022-10-05T22:29:31.089Z,1.13
2022-10-05T22:32:39.643Z,1.10
2022-10-05T22:35:58.307Z,1.30
2022-10-05T22:39:20.854Z,1.15
2022-10-05T22:42:32.716Z,1.30
2022-10-05T22:46:04.685Z,1.00
2022-10-05T22:49:28.908Z,0.90
2022-10-05T22:52:55.145Z,1.10
2022-10-05T22:56:04.700Z,0.88
2022-10-05T22:59:14.947Z,1.10
2022-10-05T23:02:26.566Z,1.10
2022-10-05T23:05:33.634Z,0.95
2022-10-05T23:08:53.016Z,1.15
2022-10-05T23:12:02.839Z,1.42
2022-10-05T23:15:17.138Z,1.17
2022-10-05T23:18:24.122Z,1.00
2022-10-05T23:21:35.327Z,1.23
2022-10-05T23:24:44.578Z,1.00
2022-10-05T23:27:49.757Z,0.88
2022-10-05T23:31:54.219Z,1.27
2022-10-05T23:35:29.283Z,0.90
2022-10-05T23:38:51.920Z,0.75
2022-10-05T23:43:11.126Z,0.65
2022-10-05T23:46:53.249Z,0.50
2022-10-05T23:51:14.920Z,0.40
2022-10-05T23:54:15.809Z,0.40
2022-10-05T23:58:02.805Z,0.20
